createdAt,value
2023-04-06T00:02:42.432Z,11.93
2023-04-06T00:05:26.516Z,11.30
2023-04-06T00:08:11.839Z,11.37
2023-04-06T00:10:55.684Z,11.13
2023-04-06T00:13:40.088Z,10.77
2023-04-06T00:16:25.132Z,12.47
2023-04-06T00:19:09.570Z,12.37
2023-04-06T00:21:53.751Z,12.00
2023-04-06T00:24:39.113Z,12.33
2023-04-06T00:27:23.073Z,12.40
2023-04-06T00:30:08.457Z,12.63
2023-04-06T00:32:52.605Z,12.47
2023-04-06T00:35:37.309Z,12.90
2023-04-06T00:38:21.801Z,11.97
2023-04-06T00:41:07.307Z,12.77
2023-04-06T00:43:51.302Z,12.37
2023-04-06T00:46:35.277Z,12.30
2023-04-06T00:49:19.359Z,12.37
2023-04-06T00:52:03.921Z,11.70
2023-04-06T00:54:47.911Z,11.33
2023-04-06T00:57:34.298Z,11.47
2023-04-06T01:00:19.371Z,10.90
2023-04-06T01:03:07.947Z,10.10
2023-04-06T01:05:59.412Z,10.73
2023-04-06T01:08:51.068Z,9.40
2023-04-06T01:11:38.283Z,10.27
2023-04-06T01:14:27.754Z,9.40
2023-04-06T01:17:16.625Z,9.17
2023-04-06T01:20:01.175Z,9.43
2023-04-06T01:22:49.937Z,8.97
2023-04-06T01:25:34.628Z,7.97
2023-04-06T01:28:23.589Z,8.83
2023-04-06T01:31:33.749Z,8.97
2023-04-06T01:34:17.994Z,9.23
2023-04-06T01:37:02.911Z,8.23
2023-04-06T01:39:49.855Z,8.60
2023-04-06T01:42:43.480Z,9.27
2023-04-06T01:45:30.191Z,8.87
2023-04-06T01:48:21.307Z,9.07
2023-04-06T01:51:06.220Z,9.17
2023-04-06T01:53:54.110Z,9.27
2023-04-06T01:56:44.057Z,8.50
2023-04-06T01:59:42.442Z,8.70
2023-04-06T02:02:48.308Z,8.50
2023-04-06T02:05:39.228Z,8.30
2023-04-06T02:08:35.016Z,8.33
2023-04-06T02:11:19.031Z,9.33
2023-04-06T02:14:08.326Z,8.63
2023-04-06T02:16:58.399Z,9.03
2023-04-06T02:19:42.559Z,9.03
2023-04-06T02:22:26.456Z,9.13
2023-04-06T02:25:10.910Z,9.57
2023-04-06T02:27:56.410Z,8.37
2023-04-06T02:30:41.880Z,9.50
2023-04-06T02:33:25.692Z,8.60
2023-04-06T02:36:10.384Z,9.30
2023-04-06T02:38:54.423Z,9.43
2023-04-06T02:41:44.020Z,9.77
2023-04-06T02:44:30.589Z,8.67
2023-04-06T02:47:16.114Z,9.20
2023-04-06T02:50:05.773Z,10.27
2023-04-06T02:52:54.756Z,9.20
2023-04-06T02:55:39.112Z,9.23
2023-04-06T02:58:23.079Z,9.30
2023-04-06T03:01:11.200Z,10.60
2023-04-06T03:03:58.211Z,10.50
2023-04-06T03:06:44.297Z,11.00
2023-04-06T03:09:39.793Z,11.10
2023-04-06T03:12:23.740Z,10.87
2023-04-06T03:15:42.687Z,10.67
2023-04-06T03:18:33.688Z,9.90
2023-04-06T03:21:20.356Z,9.43
2023-04-06T03:24:07.571Z,9.77
2023-04-06T03:26:51.444Z,10.40
2023-04-06T03:29:36.790Z,10.10
2023-04-06T03:32:22.983Z,11.07
2023-04-06T03:35:07.575Z,11.43
2023-04-06T03:37:52.916Z,10.10
2023-04-06T03:40:37.473Z,10.40
2023-04-06T03:43:21.310Z,10.47
2023-04-06T03:46:05.355Z,10.37
2023-04-06T03:48:51.182Z,10.87
2023-04-06T03:51:37.471Z,11.30
2023-04-06T03:54:22.739Z,11.37
2023-04-06T03:57:06.693Z,10.17
2023-04-06T03:59:50.577Z,11.73
2023-04-06T04:02:34.829Z,11.00
2023-04-06T04:05:18.942Z,11.13
2023-04-06T04:08:02.920Z,12.80
2023-04-06T04:10:48.329Z,12.57
2023-04-06T04:13:32.231Z,12.23
2023-04-06T04:16:16.883Z,10.23
2023-04-06T04:19:01.093Z,9.87
2023-04-06T04:21:46.574Z,10.40
2023-04-06T04:24:34.795Z,10.03
2023-04-06T04:27:21.686Z,10.23
2023-04-06T04:30:08.888Z,10.00
2023-04-06T04:32:52.935Z,10.97
2023-04-06T04:35:39.864Z,10.27
2023-04-06T04:38:25.057Z,9.93
2023-04-06T04:41:11.687Z,10.20
2023-04-06T04:44:00.170Z,9.73
2023-04-06T04:46:44.830Z,9.97
2023-04-06T04:49:31.446Z,10.40
2023-04-06T04:52:15.643Z,10.27
2023-04-06T04:55:18.588Z,10.70
2023-04-06T04:58:05.578Z,10.93
2023-04-06T05:01:11.212Z,10.93
2023-04-06T05:03:57.013Z,10.67
2023-04-06T05:06:40.868Z,10.80
2023-04-06T05:09:25.507Z,10.30
2023-04-06T05:12:09.748Z,10.60
2023-04-06T05:15:02.187Z,10.50
2023-04-06T05:17:48.978Z,10.20
2023-04-06T05:20:38.503Z,10.70
2023-04-06T05:23:22.321Z,9.67
2023-04-06T05:26:08.016Z,10.10
2023-04-06T05:28:51.974Z,9.87
2023-04-06T05:31:36.404Z,9.73
2023-04-06T05:34:21.788Z,9.77
2023-04-06T05:37:07.760Z,9.87
2023-04-06T05:39:53.237Z,9.70
2023-04-06T05:42:39.491Z,9.37
2023-04-06T05:45:23.910Z,10.20
2023-04-06T05:48:12.784Z,9.63
2023-04-06T05:50:58.185Z,9.67
2023-04-06T05:53:50.135Z,9.07
2023-04-06T05:56:33.984Z,8.90
2023-04-06T05:59:19.615Z,9.27
2023-04-06T06:02:03.688Z,9.67
2023-04-06T06:04:50.991Z,8.93
2023-04-06T06:07:37.404Z,8.70
2023-04-06T06:10:21.553Z,9.23
2023-04-06T06:13:05.397Z,8.73
2023-04-06T06:15:50.937Z,9.60
2023-04-06T06:18:37.814Z,8.47
2023-04-06T06:21:22.278Z,8.27
2023-04-06T06:24:09.135Z,8.90
2023-04-06T06:26:53.214Z,8.93
2023-04-06T06:29:40.125Z,8.07
2023-04-06T06:32:24.098Z,8.03
2023-04-06T06:35:10.903Z,7.43
2023-04-06T06:37:55.827Z,6.77
2023-04-06T06:40:44.651Z,6.87
2023-04-06T06:43:28.680Z,6.40
2023-04-06T06:46:17.230Z,7.60
2023-04-06T06:49:01.573Z,7.43
2023-04-06T06:51:45.474Z,7.50
2023-04-06T06:54:29.450Z,7.60
2023-04-06T06:57:15.081Z,7.90
2023-04-06T07:00:01.036Z,7.80
2023-04-06T07:02:47.241Z,7.80
2023-04-06T07:05:31.406Z,7.43
2023-04-06T07:08:16.192Z,7.40
2023-04-06T07:11:00.114Z,7.63
2023-04-06T07:13:45.644Z,7.20
2023-04-06T07:16:32.758Z,8.13
2023-04-06T07:19:16.735Z,7.57
2023-04-06T07:22:01.970Z,7.10
2023-04-06T07:24:46.067Z,6.97
2023-04-06T07:27:31.618Z,7.80
2023-04-06T07:30:17.725Z,7.80
2023-04-06T07:33:02.021Z,8.13
2023-04-06T07:35:46.520Z,8.10
2023-04-06T07:38:31.088Z,7.67
2023-04-06T07:41:15.036Z,8.63
2023-04-06T07:43:59.054Z,7.80
2023-04-06T07:46:44.503Z,7.50
2023-04-06T07:49:28.477Z,6.33
2023-04-06T07:52:13.003Z,7.17
2023-04-06T07:54:57.952Z,7.47
2023-04-06T07:57:41.779Z,7.33
2023-04-06T08:00:26.016Z,7.37
2023-04-06T08:03:11.626Z,7.10
2023-04-06T08:05:56.402Z,7.60
2023-04-06T08:08:40.464Z,6.97
2023-04-06T08:11:24.427Z,5.87
2023-04-06T08:14:08.398Z,6.20
2023-04-06T08:16:52.416Z,5.80
2023-04-06T08:19:38.518Z,7.00
2023-04-06T08:22:22.455Z,7.07
2023-04-06T08:25:06.986Z,6.30
2023-04-06T08:27:50.986Z,6.40
2023-04-06T08:30:34.919Z,6.27
2023-04-06T08:33:18.900Z,6.27
2023-04-06T08:36:09.538Z,5.90
2023-04-06T08:38:53.575Z,6.20
2023-04-06T08:41:38.126Z,4.87
2023-04-06T08:44:22.053Z,6.00
2023-04-06T08:47:07.954Z,6.53
2023-04-06T08:49:53.051Z,7.63
2023-04-06T08:52:39.016Z,11.13
2023-04-06T08:55:23.560Z,6.60
2023-04-06T08:58:10.142Z,7.30
2023-04-06T09:00:54.960Z,5.77
2023-04-06T09:03:41.139Z,5.90
2023-04-06T09:06:25.452Z,7.03
2023-04-06T09:09:10.724Z,5.83
2023-04-06T09:11:55.147Z,5.57
2023-04-06T09:14:40.539Z,5.77
2023-04-06T09:17:25.379Z,5.83
2023-04-06T09:20:09.678Z,5.63
2023-04-06T09:22:53.832Z,6.13
2023-04-06T09:25:39.056Z,5.77
2023-04-06T09:28:23.014Z,5.70
2023-04-06T09:31:06.901Z,5.47
2023-04-06T09:33:51.005Z,5.77
2023-04-06T09:36:36.118Z,8.90
2023-04-06T09:39:22.905Z,7.07
2023-04-06T09:42:08.255Z,7.00
2023-04-06T09:44:52.256Z,6.10
2023-04-06T09:47:38.980Z,6.50
2023-04-06T09:50:23.367Z,7.10
2023-04-06T09:53:08.228Z,6.20
2023-04-06T09:55:55.004Z,6.50
2023-04-06T09:58:45.611Z,6.30
2023-04-06T10:01:32.200Z,5.73
2023-04-06T10:04:29.371Z,7.37
2023-04-06T10:07:14.252Z,7.00
2023-04-06T10:09:59.369Z,7.73
2023-04-06T10:12:44.050Z,6.53
2023-04-06T10:15:30.645Z,6.80
2023-04-06T10:18:15.459Z,6.13
2023-04-06T10:21:05.998Z,6.57
2023-04-06T10:23:51.427Z,7.37
2023-04-06T10:26:35.322Z,7.60
2023-04-06T10:29:19.592Z,8.70
2023-04-06T10:32:05.155Z,10.10
2023-04-06T10:34:49.528Z,8.00
2023-04-06T10:37:48.976Z,5.97
2023-04-06T10:40:33.242Z,7.10
2023-04-06T10:43:23.167Z,7.97
2023-04-06T10:46:09.021Z,7.47
2023-04-06T10:48:54.754Z,7.67
2023-04-06T10:51:41.089Z,9.47
2023-04-06T10:54:28.082Z,6.70
2023-04-06T10:57:12.210Z,6.13
2023-04-06T10:59:56.365Z,10.90
2023-04-06T11:02:40.844Z,10.87
2023-04-06T11:05:26.462Z,6.83
2023-04-06T11:08:10.468Z,6.90
2023-04-06T11:10:54.622Z,5.97
2023-04-06T11:13:44.118Z,6.03
2023-04-06T11:16:30.580Z,6.07
2023-04-06T11:19:14.741Z,6.40
2023-04-06T11:22:09.218Z,5.83
2023-04-06T11:24:53.798Z,6.73
2023-04-06T11:27:38.121Z,5.90
2023-04-06T11:30:22.420Z,6.03
2023-04-06T11:33:06.562Z,5.73
2023-04-06T11:35:51.135Z,6.20
2023-04-06T11:38:40.880Z,5.87
2023-04-06T11:41:27.121Z,6.07
2023-04-06T11:44:11.353Z,6.60
2023-04-06T11:46:55.798Z,6.53
2023-04-06T11:49:41.864Z,6.70
2023-04-06T11:52:31.376Z,10.20
2023-04-06T11:55:19.094Z,12.13
2023-04-06T11:58:03.945Z,6.33
2023-04-06T12:00:48.029Z,5.17
2023-04-06T12:03:32.605Z,6.20
2023-04-06T12:06:17.324Z,6.20
2023-04-06T12:09:01.616Z,6.83
2023-04-06T12:11:47.651Z,5.87
2023-04-06T12:14:32.581Z,5.63
2023-04-06T12:17:16.830Z,5.67
2023-04-06T12:20:09.516Z,5.70
2023-04-06T12:22:57.936Z,6.33
2023-04-06T12:25:42.389Z,6.40
2023-04-06T12:28:28.133Z,6.23
2023-04-06T12:31:18.591Z,6.17
2023-04-06T12:34:04.486Z,6.87
2023-04-06T12:36:48.896Z,7.17
2023-04-06T12:39:33.247Z,6.60
2023-04-06T12:42:18.419Z,6.80
2023-04-06T12:45:04.522Z,7.53
2023-04-06T12:47:48.768Z,6.77
2023-04-06T12:50:32.998Z,7.93
2023-04-06T12:53:17.439Z,8.77
2023-04-06T12:56:01.815Z,8.87
2023-04-06T12:58:46.937Z,11.90
2023-04-06T13:01:32.759Z,9.83
2023-04-06T13:04:17.198Z,13.97
2023-04-06T13:07:01.377Z,8.07
2023-04-06T13:09:46.477Z,7.87
2023-04-06T13:12:30.721Z,12.07
2023-04-06T13:15:15.046Z,9.07
2023-04-06T13:18:01.094Z,7.97
2023-04-06T13:20:47.074Z,9.97
2023-04-06T13:23:31.419Z,7.30
2023-04-06T13:26:17.948Z,7.80
2023-04-06T13:29:03.659Z,6.80
2023-04-06T13:31:47.760Z,6.80
2023-04-06T13:34:33.188Z,9.50
2023-04-06T13:37:17.736Z,7.27
2023-04-06T13:40:01.713Z,7.10
2023-04-06T13:42:47.408Z,7.47
2023-04-06T13:45:31.503Z,7.20
2023-04-06T13:48:15.382Z,7.40
2023-04-06T13:51:09.640Z,7.10
2023-04-06T13:53:54.749Z,6.90
2023-04-06T13:56:38.529Z,7.57
2023-04-06T13:59:22.462Z,7.60
2023-04-06T14:02:08.689Z,7.47
2023-04-06T14:04:52.583Z,7.40
2023-04-06T14:07:38.400Z,7.53
2023-04-06T14:10:24.837Z,7.77
2023-04-06T14:13:08.751Z,8.53
2023-04-06T14:15:58.421Z,8.30
2023-04-06T14:18:42.202Z,7.80
2023-04-06T14:21:26.150Z,6.67
2023-04-06T14:24:11.792Z,7.27
2023-04-06T14:26:55.600Z,7.13
2023-04-06T14:29:40.438Z,7.67
2023-04-06T14:32:25.736Z,7.87
2023-04-06T14:35:10.068Z,7.23
2023-04-06T14:37:53.833Z,8.47
2023-04-06T14:40:39.335Z,7.20
2023-04-06T14:43:23.327Z,7.57
2023-04-06T14:46:09.561Z,8.73
2023-04-06T14:48:53.390Z,7.27
2023-04-06T14:51:37.550Z,7.20
2023-04-06T14:54:21.500Z,7.10
2023-04-06T14:57:06.774Z,6.93
2023-04-06T14:59:50.809Z,7.67
2023-04-06T15:02:35.129Z,7.40
2023-04-06T15:05:19.240Z,7.20
2023-04-06T15:08:03.434Z,6.80
2023-04-06T15:10:47.464Z,6.73
2023-04-06T15:13:32.948Z,7.50
2023-04-06T15:16:17.131Z,7.23
2023-04-06T15:19:01.225Z,7.60
2023-04-06T15:21:45.291Z,7.17
2023-04-06T15:24:29.433Z,8.80
2023-04-06T15:27:13.380Z,11.60
2023-04-06T15:29:59.582Z,13.73
2023-04-06T15:32:55.325Z,14.53
2023-04-06T15:35:43.045Z,14.23
2023-04-06T15:38:27.171Z,14.10
2023-04-06T15:41:11.660Z,14.80
2023-04-06T15:43:56.005Z,14.77
2023-04-06T15:46:41.346Z,13.13
2023-04-06T15:49:25.398Z,15.87
2023-04-06T15:52:09.475Z,29.47
2023-04-06T15:54:53.429Z,17.83
2023-04-06T15:57:37.830Z,16.37
2023-04-06T16:00:22.828Z,15.63
2023-04-06T16:03:08.450Z,16.83
2023-04-06T16:06:04.601Z,16.07
2023-04-06T16:08:52.401Z,23.10
2023-04-06T16:11:37.096Z,23.17
2023-04-06T16:14:21.068Z,17.07
2023-04-06T16:17:05.012Z,18.33
2023-04-06T16:19:51.065Z,17.67
2023-04-06T16:22:35.062Z,17.73
2023-04-06T16:25:19.231Z,17.30
2023-04-06T16:28:03.387Z,19.27
2023-04-06T16:30:47.392Z,19.97
2023-04-06T16:33:31.497Z,20.80
2023-04-06T16:36:22.776Z,20.23
2023-04-06T16:39:06.709Z,19.97
2023-04-06T16:41:50.861Z,20.73
2023-04-06T16:44:34.902Z,25.40
2023-04-06T16:47:19.499Z,22.97
2023-04-06T16:50:05.511Z,25.23
2023-04-06T16:52:51.726Z,24.00
2023-04-06T16:55:35.740Z,38.20
2023-04-06T16:58:19.721Z,25.60
2023-04-06T17:01:03.677Z,25.83
2023-04-06T17:03:47.939Z,26.20
2023-04-06T17:06:32.410Z,23.63
2023-04-06T17:09:18.072Z,23.40
2023-04-06T17:12:02.222Z,27.00
2023-04-06T17:14:46.233Z,28.03
2023-04-06T17:17:30.401Z,28.23
2023-04-06T17:20:14.683Z,28.47
2023-04-06T17:22:58.763Z,22.80
2023-04-06T17:25:44.257Z,32.80
2023-04-06T17:28:28.251Z,28.60
2023-04-06T17:31:13.493Z,25.93
2023-04-06T17:33:57.534Z,21.43
2023-04-06T17:36:41.670Z,21.33
2023-04-06T17:39:25.685Z,23.37
2023-04-06T17:42:11.480Z,30.13
2023-04-06T17:44:55.286Z,28.07
2023-04-06T17:47:39.046Z,28.40
2023-04-06T17:50:23.033Z,37.77
2023-04-06T17:53:08.095Z,103.30
2023-04-06T17:55:52.072Z,210.90
2023-04-06T17:58:37.342Z,32.27
2023-04-06T18:01:22.033Z,27.67
2023-04-06T18:04:06.162Z,24.63
2023-04-06T18:06:50.783Z,26.20
2023-04-06T18:09:34.671Z,24.60
2023-04-06T18:12:18.564Z,24.80
2023-04-06T18:15:03.936Z,25.87
2023-04-06T18:17:48.194Z,28.67
2023-04-06T18:20:32.219Z,26.70
2023-04-06T18:23:16.085Z,26.83
2023-04-06T18:26:00.084Z,30.63
2023-04-06T18:28:44.011Z,24.97
2023-04-06T18:31:30.723Z,25.63
2023-04-06T18:34:14.540Z,26.47
2023-04-06T18:37:00.015Z,24.67
2023-04-06T18:39:44.639Z,26.67
2023-04-06T18:42:28.447Z,25.67
2023-04-06T18:45:13.126Z,28.17
2023-04-06T18:47:58.318Z,25.87
2023-04-06T18:50:42.264Z,26.53
2023-04-06T18:53:26.055Z,27.27
2023-04-06T18:56:16.792Z,28.63
2023-04-06T18:59:00.724Z,29.20
2023-04-06T19:01:46.894Z,30.57
2023-04-06T19:04:32.602Z,30.00
2023-04-06T19:07:16.805Z,30.20
2023-04-06T19:10:00.650Z,30.53
2023-04-06T19:12:46.151Z,29.13
2023-04-06T19:15:30.028Z,27.93
2023-04-06T19:18:13.883Z,27.73
2023-04-06T19:20:59.037Z,25.63
2023-04-06T19:23:43.255Z,23.83
2023-04-06T19:26:30.482Z,27.83
2023-04-06T19:29:14.422Z,30.73
2023-04-06T19:31:59.662Z,27.93
2023-04-06T19:34:43.633Z,26.93
2023-04-06T19:37:29.017Z,26.50
2023-04-06T19:40:13.120Z,23.63
2023-04-06T19:42:56.926Z,24.27
2023-04-06T19:45:40.727Z,23.73
2023-04-06T19:48:24.701Z,22.73
2023-04-06T19:51:09.068Z,23.10
2023-04-06T19:53:54.266Z,23.87
2023-04-06T19:56:38.108Z,26.93
2023-04-06T19:59:21.847Z,29.60
2023-04-06T20:02:08.315Z,27.33
2023-04-06T20:04:52.342Z,27.50
2023-04-06T20:07:38.143Z,32.97
2023-04-06T20:10:24.365Z,30.97
2023-04-06T20:13:08.480Z,31.70
2023-04-06T20:15:52.548Z,23.73
2023-04-06T20:18:37.248Z,22.83
2023-04-06T20:21:21.142Z,21.30
2023-04-06T20:24:05.182Z,24.00
2023-04-06T20:26:50.778Z,25.33
2023-04-06T20:29:34.519Z,22.57
2023-04-06T20:32:20.816Z,24.43
2023-04-06T20:35:05.045Z,21.60
2023-04-06T20:37:48.863Z,22.30
2023-04-06T20:40:32.756Z,20.60
2023-04-06T20:43:20.649Z,22.03
2023-04-06T20:46:05.854Z,21.03
2023-04-06T20:48:49.682Z,20.43
2023-04-06T20:51:33.791Z,19.17
2023-04-06T20:54:17.871Z,17.17
2023-04-06T20:57:01.989Z,17.73
2023-04-06T20:59:47.245Z,16.93
2023-04-06T21:02:31.289Z,16.20
2023-04-06T21:05:15.256Z,17.13
2023-04-06T21:07:59.031Z,17.93
2023-04-06T21:10:42.886Z,21.10
2023-04-06T21:13:26.654Z,17.63
2023-04-06T21:16:11.878Z,16.63
2023-04-06T21:18:55.988Z,15.60
2023-04-06T21:21:39.921Z,15.53
2023-04-06T21:24:23.986Z,15.87
2023-04-06T21:27:08.381Z,16.90
2023-04-06T21:29:52.285Z,19.17
2023-04-06T21:32:37.864Z,20.50
2023-04-06T21:35:21.644Z,23.77
2023-04-06T21:38:05.462Z,18.10
2023-04-06T21:40:56.087Z,19.87
2023-04-06T21:43:39.881Z,22.43
2023-04-06T21:46:23.749Z,26.03
2023-04-06T21:49:08.943Z,23.70
2023-04-06T21:51:52.640Z,21.90
2023-04-06T21:54:36.416Z,19.83
2023-04-06T21:57:20.200Z,19.13
2023-04-06T22:00:09.740Z,20.73
2023-04-06T22:02:59.241Z,22.50
2023-04-06T22:05:44.400Z,23.10
2023-04-06T22:08:33.785Z,22.83
2023-04-06T22:11:18.234Z,24.73
2023-04-06T22:14:02.387Z,22.23
2023-04-06T22:16:46.566Z,22.60
2023-04-06T22:19:30.655Z,19.00
2023-04-06T22:22:15.977Z,15.57
2023-04-06T22:25:01.203Z,12.93
2023-04-06T22:27:46.722Z,12.73
2023-04-06T22:30:30.683Z,11.10
2023-04-06T22:33:14.577Z,11.60
2023-04-06T22:35:58.574Z,11.23
2023-04-06T22:38:44.501Z,11.97
2023-04-06T22:41:28.448Z,18.83
2023-04-06T22:44:12.458Z,17.17
2023-04-06T22:46:56.203Z,20.50
2023-04-06T22:49:40.166Z,14.50
2023-04-06T22:52:23.926Z,11.63
2023-04-06T22:55:09.846Z,8.60
2023-04-06T22:57:53.629Z,9.67
2023-04-06T23:00:37.411Z,9.93
2023-04-06T23:03:21.287Z,9.90
2023-04-06T23:06:05.574Z,9.93
2023-04-06T23:08:49.486Z,9.73
2023-04-06T23:11:34.715Z,9.57
2023-04-06T23:14:18.816Z,9.20
2023-04-06T23:17:02.884Z,8.33
2023-04-06T23:19:47.096Z,7.13
2023-04-06T23:22:31.245Z,7.27
2023-04-06T23:25:14.991Z,6.37
2023-04-06T23:28:00.174Z,6.60
2023-04-06T23:30:43.951Z,6.57
2023-04-06T23:33:29.147Z,6.50
2023-04-06T23:36:12.916Z,6.37
2023-04-06T23:38:57.279Z,6.57
2023-04-06T23:41:41.007Z,6.50
2023-04-06T23:44:26.324Z,8.57
2023-04-06T23:47:10.106Z,9.63
2023-04-06T23:49:53.815Z,12.50
2023-04-06T23:52:37.504Z,13.07
2023-04-06T23:55:21.417Z,12.63
2023-04-06T23:58:05.560Z,12.30
